sensor_id;sensor_type;location;lat;lon;timestamp;temperature;humidity
33715;DHT22;20043;50.998;4.754;2024-03-02T00:00:51;8.90;99.90
33715;DHT22;20043;50.998;4.754;2024-03-02T00:03:18;8.90;99.90
33715;DHT22;20043;50.998;4.754;2024-03-02T00:05:43;8.90;99.90
33715;DHT22;20043;50.998;4.754;2024-03-02T00:08:09;8.90;99.90
33715;DHT22;20043;50.998;4.754;2024-03-02T00:10:37;8.90;99.90
33715;DHT22;20043;50.998;4.754;2024-03-02T00:13:08;8.90;99.90
33715;DHT22;20043;50.998;4.754;2024-03-02T00:15:48;8.90;99.90
33715;DHT22;20043;50.998;4.754;2024-03-02T00:20:53;9.00;99.90
33715;DHT22;20043;50.998;4.754;2024-03-02T00:23:20;9.00;99.90
33715;DHT22;20043;50.998;4.754;2024-03-02T00:25:52;8.90;99.90
33715;DHT22;20043;50.998;4.754;2024-03-02T00:28:23;8.70;99.90
33715;DHT22;20043;50.998;4.754;2024-03-02T00:30:59;8.80;99.90
33715;DHT22;20043;50.998;4.754;2024-03-02T00:33:35;8.70;99.90
33715;DHT22;20043;50.998;4.754;2024-03-02T00:36:02;8.70;99.90
33715;DHT22;20043;50.998;4.754;2024-03-02T00:38:29;8.70;99.90
33715;DHT22;20043;50.998;4.754;2024-03-02T00:40:56;8.70;99.90
33715;DHT22;20043;50.998;4.754;2024-03-02T00:46:19;8.70;99.90
33715;DHT22;20043;50.998;4.754;2024-03-02T00:49:05;8.70;99.90
33715;DHT22;20043;50.998;4.754;2024-03-02T00:51:37;8.60;99.90
33715;DHT22;20043;50.998;4.754;2024-03-02T00:54:09;8.60;99.90
33715;DHT22;20043;50.998;4.754;2024-03-02T00:56:35;8.50;99.90
33715;DHT22;20043;50.998;4.754;2024-03-02T00:59:01;8.60;99.90
33715;DHT22;20043;50.998;4.754;2024-03-02T01:01:27;8.50;99.90
33715;DHT22;20043;50.998;4.754;2024-03-02T01:03:52;8.20;99.90
33715;DHT22;20043;50.998;4.754;2024-03-02T01:06:18;8.30;99.90
33715;DHT22;20043;50.998;4.754;2024-03-02T01:08:44;8.50;99.90
33715;DHT22;20043;50.998;4.754;2024-03-02T01:11:10;8.30;99.90
33715;DHT22;20043;50.998;4.754;2024-03-02T01:13:36;8.30;99.90
33715;DHT22;20043;50.998;4.754;2024-03-02T01:16:01;8.50;99.90
33715;DHT22;20043;50.998;4.754;2024-03-02T01:18:28;8.50;99.90
33715;DHT22;20043;50.998;4.754;2024-03-02T01:20:53;8.50;99.90
33715;DHT22;20043;50.998;4.754;2024-03-02T01:23:22;8.60;99.90
33715;DHT22;20043;50.998;4.754;2024-03-02T01:25:47;8.60;99.90
33715;DHT22;20043;50.998;4.754;2024-03-02T01:28:14;8.60;99.90
33715;DHT22;20043;50.998;4.754;2024-03-02T01:30:40;8.70;99.90
33715;DHT22;20043;50.998;4.754;2024-03-02T01:33:12;8.70;99.90
33715;DHT22;20043;50.998;4.754;2024-03-02T01:35:38;8.70;99.90
33715;DHT22;20043;50.998;4.754;2024-03-02T01:38:04;8.60;99.90
33715;DHT22;20043;50.998;4.754;2024-03-02T01:40:34;8.60;99.90
33715;DHT22;20043;50.998;4.754;2024-03-02T01:42:59;8.60;99.90
33715;DHT22;20043;50.998;4.754;2024-03-02T01:45:25;8.70;99.90
33715;DHT22;20043;50.998;4.754;2024-03-02T01:47:51;8.70;99.90
33715;DHT22;20043;50.998;4.754;2024-03-02T01:50:28;8.70;99.90
33715;DHT22;20043;50.998;4.754;2024-03-02T01:52:55;8.70;99.90
33715;DHT22;20043;50.998;4.754;2024-03-02T01:55:21;8.70;99.90
33715;DHT22;20043;50.998;4.754;2024-03-02T01:57:48;8.60;99.90
33715;DHT22;20043;50.998;4.754;2024-03-02T02:00:14;8.50;99.90
33715;DHT22;20043;50.998;4.754;2024-03-02T02:02:48;8.40;99.90
33715;DHT22;20043;50.998;4.754;2024-03-02T02:05:14;8.30;99.90
33715;DHT22;20043;50.998;4.754;2024-03-02T02:07:41;8.30;99.90
33715;DHT22;20043;50.998;4.754;2024-03-02T02:10:08;8.40;99.90
33715;DHT22;20043;50.998;4.754;2024-03-02T02:12:33;8.30;99.90
33715;DHT22;20043;50.998;4.754;2024-03-02T02:15:00;8.30;99.90
33715;DHT22;20043;50.998;4.754;2024-03-02T02:17:25;8.40;99.90
33715;DHT22;20043;50.998;4.754;2024-03-02T02:19:51;8.50;99.90
33715;DHT22;20043;50.998;4.754;2024-03-02T02:22:16;8.30;99.90
33715;DHT22;20043;50.998;4.754;2024-03-02T02:24:42;8.40;99.90
33715;DHT22;20043;50.998;4.754;2024-03-02T02:27:09;8.30;99.90
33715;DHT22;20043;50.998;4.754;2024-03-02T02:29:35;8.30;99.90
33715;DHT22;20043;50.998;4.754;2024-03-02T02:32:01;8.40;99.90
33715;DHT22;20043;50.998;4.754;2024-03-02T02:34:27;8.50;99.90
33715;DHT22;20043;50.998;4.754;2024-03-02T02:36:53;8.50;99.90
33715;DHT22;20043;50.998;4.754;2024-03-02T02:39:21;8.40;99.90
33715;DHT22;20043;50.998;4.754;2024-03-02T02:41:48;8.60;99.90
33715;DHT22;20043;50.998;4.754;2024-03-02T02:44:13;8.70;99.90
33715;DHT22;20043;50.998;4.754;2024-03-02T02:46:40;8.80;99.90
33715;DHT22;20043;50.998;4.754;2024-03-02T02:49:05;8.80;99.90
33715;DHT22;20043;50.998;4.754;2024-03-02T02:51:31;8.80;99.90
33715;DHT22;20043;50.998;4.754;2024-03-02T02:53:57;8.70;99.90
33715;DHT22;20043;50.998;4.754;2024-03-02T02:56:22;8.70;99.90
33715;DHT22;20043;50.998;4.754;2024-03-02T02:58:48;8.60;99.90
33715;DHT22;20043;50.998;4.754;2024-03-02T03:01:15;8.50;99.90
33715;DHT22;20043;50.998;4.754;2024-03-02T03:03:43;8.50;99.90
33715;DHT22;20043;50.998;4.754;2024-03-02T03:06:10;8.50;99.90
33715;DHT22;20043;50.998;4.754;2024-03-02T03:08:35;8.40;99.90
33715;DHT22;20043;50.998;4.754;2024-03-02T03:11:01;8.40;99.90
33715;DHT22;20043;50.998;4.754;2024-03-02T03:13:27;8.40;99.90
33715;DHT22;20043;50.998;4.754;2024-03-02T03:15:52;8.40;99.90
33715;DHT22;20043;50.998;4.754;2024-03-02T03:18:18;8.50;99.90
33715;DHT22;20043;50.998;4.754;2024-03-02T03:20:44;8.30;99.90
33715;DHT22;20043;50.998;4.754;2024-03-02T03:23:10;8.30;99.90
33715;DHT22;20043;50.998;4.754;2024-03-02T03:25:40;8.40;99.90
33715;DHT22;20043;50.998;4.754;2024-03-02T03:28:06;8.40;99.90
33715;DHT22;20043;50.998;4.754;2024-03-02T03:30:32;8.50;99.90
33715;DHT22;20043;50.998;4.754;2024-03-02T03:32:57;8.40;99.90
33715;DHT22;20043;50.998;4.754;2024-03-02T03:35:23;8.30;99.90
33715;DHT22;20043;50.998;4.754;2024-03-02T03:37:48;8.30;99.90
33715;DHT22;20043;50.998;4.754;2024-03-02T03:40:14;8.20;99.90
33715;DHT22;20043;50.998;4.754;2024-03-02T03:42:40;8.10;99.90
33715;DHT22;20043;50.998;4.754;2024-03-02T03:45:06;8.10;99.90
33715;DHT22;20043;50.998;4.754;2024-03-02T03:47:32;8.00;99.90
33715;DHT22;20043;50.998;4.754;2024-03-02T03:49:58;7.90;99.90
33715;DHT22;20043;50.998;4.754;2024-03-02T03:52:24;7.90;99.90
33715;DHT22;20043;50.998;4.754;2024-03-02T03:54:49;7.90;99.90
33715;DHT22;20043;50.998;4.754;2024-03-02T03:57:15;7.90;99.90
33715;DHT22;20043;50.998;4.754;2024-03-02T03:59:41;7.90;99.90
33715;DHT22;20043;50.998;4.754;2024-03-02T04:02:08;8.00;99.90
33715;DHT22;20043;50.998;4.754;2024-03-02T04:04:33;8.00;99.90
33715;DHT22;20043;50.998;4.754;2024-03-02T04:06:59;7.90;99.90
33715;DHT22;20043;50.998;4.754;2024-03-02T04:09:24;8.00;99.90
33715;DHT22;20043;50.998;4.754;2024-03-02T04:11:51;7.90;99.90
33715;DHT22;20043;50.998;4.754;2024-03-02T04:14:16;7.80;99.90
33715;DHT22;20043;50.998;4.754;2024-03-02T04:16:42;7.90;99.90
33715;DHT22;20043;50.998;4.754;2024-03-02T04:19:08;7.90;99.90
33715;DHT22;20043;50.998;4.754;2024-03-02T04:21:33;7.90;99.90
33715;DHT22;20043;50.998;4.754;2024-03-02T04:24:06;7.90;99.90
33715;DHT22;20043;50.998;4.754;2024-03-02T04:26:31;7.90;99.90
33715;DHT22;20043;50.998;4.754;2024-03-02T04:28:57;8.00;99.90
33715;DHT22;20043;50.998;4.754;2024-03-02T04:31:22;7.90;99.90
33715;DHT22;20043;50.998;4.754;2024-03-02T04:33:48;7.80;99.90
33715;DHT22;20043;50.998;4.754;2024-03-02T04:36:13;7.80;99.90
33715;DHT22;20043;50.998;4.754;2024-03-02T04:38:39;7.80;99.90
33715;DHT22;20043;50.998;4.754;2024-03-02T04:41:05;7.80;99.90
33715;DHT22;20043;50.998;4.754;2024-03-02T04:43:32;7.70;99.90
33715;DHT22;20043;50.998;4.754;2024-03-02T04:45:58;7.80;99.90
33715;DHT22;20043;50.998;4.754;2024-03-02T04:48:24;7.80;99.90
33715;DHT22;20043;50.998;4.754;2024-03-02T04:50:50;7.60;99.90
33715;DHT22;20043;50.998;4.754;2024-03-02T04:53:16;7.60;99.90
33715;DHT22;20043;50.998;4.754;2024-03-02T04:55:41;7.60;99.90
33715;DHT22;20043;50.998;4.754;2024-03-02T04:58:07;7.70;99.90
33715;DHT22;20043;50.998;4.754;2024-03-02T05:00:33;7.70;99.90
33715;DHT22;20043;50.998;4.754;2024-03-02T05:02:59;7.70;99.90
33715;DHT22;20043;50.998;4.754;2024-03-02T05:05:24;7.80;99.90
33715;DHT22;20043;50.998;4.754;2024-03-02T05:07:50;7.80;99.90
33715;DHT22;20043;50.998;4.754;2024-03-02T05:10:16;7.80;99.90
33715;DHT22;20043;50.998;4.754;2024-03-02T05:12:42;7.70;99.90
33715;DHT22;20043;50.998;4.754;2024-03-02T05:15:07;7.70;99.90
33715;DHT22;20043;50.998;4.754;2024-03-02T05:17:33;7.80;99.90
33715;DHT22;20043;50.998;4.754;2024-03-02T05:19:59;7.80;99.90
33715;DHT22;20043;50.998;4.754;2024-03-02T05:22:25;7.80;99.90
33715;DHT22;20043;50.998;4.754;2024-03-02T05:24:50;7.90;99.90
33715;DHT22;20043;50.998;4.754;2024-03-02T05:27:16;7.90;99.90
33715;DHT22;20043;50.998;4.754;2024-03-02T05:29:41;8.00;99.90
33715;DHT22;20043;50.998;4.754;2024-03-02T05:32:07;8.00;99.90
33715;DHT22;20043;50.998;4.754;2024-03-02T05:34:32;8.00;99.90
33715;DHT22;20043;50.998;4.754;2024-03-02T05:37:01;7.90;99.90
33715;DHT22;20043;50.998;4.754;2024-03-02T05:39:26;7.90;99.90
33715;DHT22;20043;50.998;4.754;2024-03-02T05:41:52;7.80;99.90
33715;DHT22;20043;50.998;4.754;2024-03-02T05:44:17;7.70;99.90
33715;DHT22;20043;50.998;4.754;2024-03-02T05:46:44;7.60;99.90
33715;DHT22;20043;50.998;4.754;2024-03-02T05:49:10;7.50;99.90
33715;DHT22;20043;50.998;4.754;2024-03-02T05:51:36;7.50;99.90
33715;DHT22;20043;50.998;4.754;2024-03-02T05:54:01;7.40;99.90
33715;DHT22;20043;50.998;4.754;2024-03-02T05:56:27;7.40;99.90
33715;DHT22;20043;50.998;4.754;2024-03-02T05:58:53;7.40;99.90
33715;DHT22;20043;50.998;4.754;2024-03-02T06:01:45;7.40;99.90
33715;DHT22;20043;50.998;4.754;2024-03-02T06:04:12;7.30;99.90
33715;DHT22;20043;50.998;4.754;2024-03-02T06:06:38;7.30;99.90
33715;DHT22;20043;50.998;4.754;2024-03-02T06:09:04;7.30;99.90
33715;DHT22;20043;50.998;4.754;2024-03-02T06:13:59;7.30;99.90
33715;DHT22;20043;50.998;4.754;2024-03-02T06:16:25;7.30;99.90
33715;DHT22;20043;50.998;4.754;2024-03-02T06:18:50;7.10;99.90
33715;DHT22;20043;50.998;4.754;2024-03-02T06:21:16;7.10;99.90
33715;DHT22;20043;50.998;4.754;2024-03-02T06:23:43;7.20;99.90
33715;DHT22;20043;50.998;4.754;2024-03-02T06:26:09;7.30;99.90
33715;DHT22;20043;50.998;4.754;2024-03-02T06:28:35;7.30;99.90
33715;DHT22;20043;50.998;4.754;2024-03-02T06:31:01;7.40;99.90
33715;DHT22;20043;50.998;4.754;2024-03-02T06:33:27;7.40;99.90
33715;DHT22;20043;50.998;4.754;2024-03-02T06:35:54;7.50;99.90
33715;DHT22;20043;50.998;4.754;2024-03-02T06:38:19;7.50;99.90
33715;DHT22;20043;50.998;4.754;2024-03-02T06:40:45;7.60;99.90
33715;DHT22;20043;50.998;4.754;2024-03-02T06:43:11;7.60;99.90
33715;DHT22;20043;50.998;4.754;2024-03-02T06:45:36;7.70;99.90
33715;DHT22;20043;50.998;4.754;2024-03-02T06:48:02;7.70;99.90
33715;DHT22;20043;50.998;4.754;2024-03-02T06:50:27;7.70;99.90
33715;DHT22;20043;50.998;4.754;2024-03-02T06:52:54;7.70;99.90
33715;DHT22;20043;50.998;4.754;2024-03-02T06:55:21;7.70;99.90
33715;DHT22;20043;50.998;4.754;2024-03-02T06:57:47;7.60;99.90
33715;DHT22;20043;50.998;4.754;2024-03-02T07:00:13;7.60;99.90
33715;DHT22;20043;50.998;4.754;2024-03-02T07:02:39;7.60;99.90
33715;DHT22;20043;50.998;4.754;2024-03-02T07:05:07;7.50;99.90
33715;DHT22;20043;50.998;4.754;2024-03-02T07:07:33;7.40;99.90
33715;DHT22;20043;50.998;4.754;2024-03-02T07:10:00;7.30;99.90
33715;DHT22;20043;50.998;4.754;2024-03-02T07:12:26;7.20;99.90
33715;DHT22;20043;50.998;4.754;2024-03-02T07:14:52;7.30;99.90
33715;DHT22;20043;50.998;4.754;2024-03-02T07:17:30;7.40;99.90
33715;DHT22;20043;50.998;4.754;2024-03-02T07:19:56;7.40;99.90
33715;DHT22;20043;50.998;4.754;2024-03-02T07:22:22;7.50;99.90
33715;DHT22;20043;50.998;4.754;2024-03-02T07:24:48;7.50;99.90
33715;DHT22;20043;50.998;4.754;2024-03-02T07:27:15;7.70;99.90
33715;DHT22;20043;50.998;4.754;2024-03-02T07:29:40;7.70;99.90
33715;DHT22;20043;50.998;4.754;2024-03-02T07:32:07;7.90;99.90
33715;DHT22;20043;50.998;4.754;2024-03-02T07:34:33;8.00;99.90
33715;DHT22;20043;50.998;4.754;2024-03-02T07:36:59;8.00;99.90
33715;DHT22;20043;50.998;4.754;2024-03-02T07:39:25;8.00;99.90
33715;DHT22;20043;50.998;4.754;2024-03-02T07:41:51;8.00;99.90
33715;DHT22;20043;50.998;4.754;2024-03-02T07:44:17;8.00;99.90
33715;DHT22;20043;50.998;4.754;2024-03-02T07:46:45;8.00;99.90
33715;DHT22;20043;50.998;4.754;2024-03-02T07:49:18;8.00;99.90
33715;DHT22;20043;50.998;4.754;2024-03-02T07:51:43;8.10;99.90
33715;DHT22;20043;50.998;4.754;2024-03-02T07:54:09;8.10;99.90
33715;DHT22;20043;50.998;4.754;2024-03-02T07:56:35;8.10;99.90
33715;DHT22;20043;50.998;4.754;2024-03-02T07:59:02;8.20;99.90
33715;DHT22;20043;50.998;4.754;2024-03-02T08:01:28;8.20;99.90
33715;DHT22;20043;50.998;4.754;2024-03-02T08:03:56;8.30;99.90
33715;DHT22;20043;50.998;4.754;2024-03-02T08:06:26;8.40;99.90
33715;DHT22;20043;50.998;4.754;2024-03-02T08:08:56;8.50;99.90
33715;DHT22;20043;50.998;4.754;2024-03-02T08:11:22;8.60;99.90
33715;DHT22;20043;50.998;4.754;2024-03-02T08:13:48;8.60;99.90
33715;DHT22;20043;50.998;4.754;2024-03-02T08:16:17;8.70;99.90
33715;DHT22;20043;50.998;4.754;2024-03-02T08:18:49;8.70;99.90
33715;DHT22;20043;50.998;4.754;2024-03-02T08:21:15;8.80;99.90
33715;DHT22;20043;50.998;4.754;2024-03-02T08:23:42;8.90;99.90
33715;DHT22;20043;50.998;4.754;2024-03-02T08:26:08;9.00;99.90
33715;DHT22;20043;50.998;4.754;2024-03-02T08:28:34;9.10;99.90
33715;DHT22;20043;50.998;4.754;2024-03-02T08:31:00;9.10;99.90
33715;DHT22;20043;50.998;4.754;2024-03-02T08:33:25;9.20;99.90
33715;DHT22;20043;50.998;4.754;2024-03-02T08:35:51;9.30;99.90
33715;DHT22;20043;50.998;4.754;2024-03-02T08:38:17;9.30;99.90
33715;DHT22;20043;50.998;4.754;2024-03-02T08:40:44;9.20;99.90
33715;DHT22;20043;50.998;4.754;2024-03-02T08:43:09;9.30;99.90
33715;DHT22;20043;50.998;4.754;2024-03-02T08:45:35;9.40;99.90
33715;DHT22;20043;50.998;4.754;2024-03-02T08:48:01;9.50;99.90
33715;DHT22;20043;50.998;4.754;2024-03-02T08:50:27;9.50;99.90
33715;DHT22;20043;50.998;4.754;2024-03-02T08:52:52;9.50;99.90
33715;DHT22;20043;50.998;4.754;2024-03-02T08:55:18;9.70;99.90
33715;DHT22;20043;50.998;4.754;2024-03-02T08:57:44;9.80;99.90
33715;DHT22;20043;50.998;4.754;2024-03-02T09:00:09;9.80;99.90
33715;DHT22;20043;50.998;4.754;2024-03-02T09:02:35;9.80;99.90
33715;DHT22;20043;50.998;4.754;2024-03-02T09:05:01;9.90;99.90
33715;DHT22;20043;50.998;4.754;2024-03-02T09:07:27;10.10;99.90
33715;DHT22;20043;50.998;4.754;2024-03-02T09:09:53;10.20;99.90
33715;DHT22;20043;50.998;4.754;2024-03-02T09:12:19;10.30;99.90
33715;DHT22;20043;50.998;4.754;2024-03-02T09:14:45;10.40;99.90
33715;DHT22;20043;50.998;4.754;2024-03-02T09:30:46;10.60;99.90
33715;DHT22;20043;50.998;4.754;2024-03-02T09:33:18;11.20;99.90
33715;DHT22;20043;50.998;4.754;2024-03-02T09:35:44;11.20;99.90
33715;DHT22;20043;50.998;4.754;2024-03-02T09:38:10;11.20;99.90
33715;DHT22;20043;50.998;4.754;2024-03-02T09:40:35;11.10;99.90
33715;DHT22;20043;50.998;4.754;2024-03-02T09:43:02;11.00;99.90
33715;DHT22;20043;50.998;4.754;2024-03-02T09:45:29;11.20;99.90
33715;DHT22;20043;50.998;4.754;2024-03-02T09:47:55;11.20;99.90
33715;DHT22;20043;50.998;4.754;2024-03-02T09:50:20;11.30;99.90
33715;DHT22;20043;50.998;4.754;2024-03-02T09:52:49;11.40;99.90
33715;DHT22;20043;50.998;4.754;2024-03-02T09:55:18;11.40;99.90
33715;DHT22;20043;50.998;4.754;2024-03-02T09:57:45;11.30;99.90
33715;DHT22;20043;50.998;4.754;2024-03-02T10:00:11;11.30;99.90
33715;DHT22;20043;50.998;4.754;2024-03-02T10:02:43;11.50;99.90
33715;DHT22;20043;50.998;4.754;2024-03-02T10:05:10;11.50;99.90
33715;DHT22;20043;50.998;4.754;2024-03-02T10:07:35;11.60;99.90
33715;DHT22;20043;50.998;4.754;2024-03-02T10:10:13;11.50;99.90
33715;DHT22;20043;50.998;4.754;2024-03-02T10:12:39;11.70;99.90
33715;DHT22;20043;50.998;4.754;2024-03-02T10:15:05;11.70;99.90
33715;DHT22;20043;50.998;4.754;2024-03-02T10:17:32;11.70;99.90
33715;DHT22;20043;50.998;4.754;2024-03-02T10:19:57;11.60;99.90
33715;DHT22;20043;50.998;4.754;2024-03-02T10:22:23;11.60;99.90
33715;DHT22;20043;50.998;4.754;2024-03-02T10:24:49;11.80;99.90
33715;DHT22;20043;50.998;4.754;2024-03-02T10:27:16;11.80;99.90
33715;DHT22;20043;50.998;4.754;2024-03-02T10:29:45;11.90;99.90
33715;DHT22;20043;50.998;4.754;2024-03-02T10:32:11;12.00;99.90
33715;DHT22;20043;50.998;4.754;2024-03-02T10:34:41;12.00;99.90
33715;DHT22;20043;50.998;4.754;2024-03-02T10:37:07;12.00;99.90
33715;DHT22;20043;50.998;4.754;2024-03-02T10:39:34;12.00;99.90
33715;DHT22;20043;50.998;4.754;2024-03-02T10:42:06;12.10;99.90
33715;DHT22;20043;50.998;4.754;2024-03-02T10:44:32;12.10;99.90
33715;DHT22;20043;50.998;4.754;2024-03-02T10:47:03;12.20;99.90
33715;DHT22;20043;50.998;4.754;2024-03-02T10:49:32;12.30;99.90
33715;DHT22;20043;50.998;4.754;2024-03-02T10:51:59;12.10;99.90
33715;DHT22;20043;50.998;4.754;2024-03-02T10:54:25;12.10;99.90
33715;DHT22;20043;50.998;4.754;2024-03-02T10:57:01;12.10;99.90
33715;DHT22;20043;50.998;4.754;2024-03-02T10:59:32;12.10;99.90
33715;DHT22;20043;50.998;4.754;2024-03-02T11:02:00;12.20;99.90
33715;DHT22;20043;50.998;4.754;2024-03-02T11:04:27;12.40;99.90
33715;DHT22;20043;50.998;4.754;2024-03-02T11:06:59;12.60;99.90
33715;DHT22;20043;50.998;4.754;2024-03-02T11:09:29;12.60;99.90
33715;DHT22;20043;50.998;4.754;2024-03-02T11:12:25;12.70;99.90
33715;DHT22;20043;50.998;4.754;2024-03-02T11:14:55;12.80;99.90
33715;DHT22;20043;50.998;4.754;2024-03-02T11:17:21;13.00;99.90
33715;DHT22;20043;50.998;4.754;2024-03-02T11:19:49;13.10;99.90
33715;DHT22;20043;50.998;4.754;2024-03-02T11:22:15;13.10;99.90
33715;DHT22;20043;50.998;4.754;2024-03-02T11:24:48;12.90;99.90
33715;DHT22;20043;50.998;4.754;2024-03-02T11:27:14;12.80;99.90
33715;DHT22;20043;50.998;4.754;2024-03-02T11:32:18;12.60;99.90
33715;DHT22;20043;50.998;4.754;2024-03-02T11:34:47;12.80;99.90
33715;DHT22;20043;50.998;4.754;2024-03-02T11:37:15;12.90;99.90
33715;DHT22;20043;50.998;4.754;2024-03-02T11:39:45;13.00;99.90
33715;DHT22;20043;50.998;4.754;2024-03-02T11:42:14;13.10;99.90
33715;DHT22;20043;50.998;4.754;2024-03-02T11:44:50;13.10;99.90
33715;DHT22;20043;50.998;4.754;2024-03-02T11:47:16;13.10;99.90
33715;DHT22;20043;50.998;4.754;2024-03-02T11:49:49;13.00;99.90
33715;DHT22;20043;50.998;4.754;2024-03-02T11:52:16;13.00;99.90
33715;DHT22;20043;50.998;4.754;2024-03-02T11:54:45;13.20;99.90
33715;DHT22;20043;50.998;4.754;2024-03-02T11:57:21;13.20;99.90
33715;DHT22;20043;50.998;4.754;2024-03-02T11:59:50;13.30;99.90
33715;DHT22;20043;50.998;4.754;2024-03-02T12:02:17;13.40;99.90
33715;DHT22;20043;50.998;4.754;2024-03-02T12:04:43;13.60;99.90
33715;DHT22;20043;50.998;4.754;2024-03-02T12:07:10;13.70;99.90
33715;DHT22;20043;50.998;4.754;2024-03-02T12:09:36;13.80;99.90
33715;DHT22;20043;50.998;4.754;2024-03-02T12:12:07;13.70;99.90
33715;DHT22;20043;50.998;4.754;2024-03-02T12:14:34;13.70;99.90
33715;DHT22;20043;50.998;4.754;2024-03-02T12:17:00;13.70;99.90
33715;DHT22;20043;50.998;4.754;2024-03-02T12:19:26;13.80;99.90
33715;DHT22;20043;50.998;4.754;2024-03-02T12:21:53;13.80;99.90
33715;DHT22;20043;50.998;4.754;2024-03-02T12:24:20;13.70;99.90
33715;DHT22;20043;50.998;4.754;2024-03-02T12:26:46;13.60;99.90
33715;DHT22;20043;50.998;4.754;2024-03-02T12:29:13;13.70;99.90
33715;DHT22;20043;50.998;4.754;2024-03-02T12:31:41;13.90;99.90
33715;DHT22;20043;50.998;4.754;2024-03-02T12:34:07;13.80;99.90
33715;DHT22;20043;50.998;4.754;2024-03-02T12:36:40;13.70;99.90
33715;DHT22;20043;50.998;4.754;2024-03-02T12:39:10;13.40;99.90
33715;DHT22;20043;50.998;4.754;2024-03-02T12:41:36;13.30;99.90
33715;DHT22;20043;50.998;4.754;2024-03-02T12:44:05;13.40;99.90
33715;DHT22;20043;50.998;4.754;2024-03-02T12:46:32;13.40;99.90
33715;DHT22;20043;50.998;4.754;2024-03-02T12:48:58;13.30;99.90
33715;DHT22;20043;50.998;4.754;2024-03-02T12:51:24;13.40;99.90
33715;DHT22;20043;50.998;4.754;2024-03-02T12:53:54;13.50;99.90
33715;DHT22;20043;50.998;4.754;2024-03-02T12:56:20;13.60;99.90
33715;DHT22;20043;50.998;4.754;2024-03-02T12:58:46;13.70;99.90
33715;DHT22;20043;50.998;4.754;2024-03-02T13:01:14;13.90;99.90
33715;DHT22;20043;50.998;4.754;2024-03-02T13:03:41;13.90;99.90
33715;DHT22;20043;50.998;4.754;2024-03-02T13:06:07;13.80;99.90
33715;DHT22;20043;50.998;4.754;2024-03-02T13:08:33;13.80;99.90
33715;DHT22;20043;50.998;4.754;2024-03-02T13:10:59;13.70;99.90
33715;DHT22;20043;50.998;4.754;2024-03-02T13:13:25;13.80;99.90
33715;DHT22;20043;50.998;4.754;2024-03-02T13:15:55;13.60;99.90
33715;DHT22;20043;50.998;4.754;2024-03-02T13:18:21;13.70;99.90
33715;DHT22;20043;50.998;4.754;2024-03-02T13:20:47;13.70;99.90
33715;DHT22;20043;50.998;4.754;2024-03-02T13:23:12;13.80;99.90
33715;DHT22;20043;50.998;4.754;2024-03-02T13:25:38;13.90;99.90
33715;DHT22;20043;50.998;4.754;2024-03-02T13:28:04;14.00;99.90
33715;DHT22;20043;50.998;4.754;2024-03-02T13:30:29;14.20;99.90
33715;DHT22;20043;50.998;4.754;2024-03-02T13:32:55;14.20;99.90
33715;DHT22;20043;50.998;4.754;2024-03-02T13:35:21;14.10;99.90
33715;DHT22;20043;50.998;4.754;2024-03-02T13:37:47;14.00;99.90
33715;DHT22;20043;50.998;4.754;2024-03-02T13:40:18;14.00;99.90
33715;DHT22;20043;50.998;4.754;2024-03-02T13:42:49;13.80;99.90
33715;DHT22;20043;50.998;4.754;2024-03-02T13:45:16;13.80;99.90
33715;DHT22;20043;50.998;4.754;2024-03-02T13:47:43;13.60;99.90
33715;DHT22;20043;50.998;4.754;2024-03-02T13:50:09;13.60;99.90
33715;DHT22;20043;50.998;4.754;2024-03-02T13:52:35;13.60;99.90
33715;DHT22;20043;50.998;4.754;2024-03-02T13:55:00;13.70;99.90
33715;DHT22;20043;50.998;4.754;2024-03-02T13:57:26;13.60;99.90
33715;DHT22;20043;50.998;4.754;2024-03-02T13:59:51;13.60;99.90
33715;DHT22;20043;50.998;4.754;2024-03-02T14:02:18;13.50;99.90
33715;DHT22;20043;50.998;4.754;2024-03-02T14:04:44;13.50;99.90
33715;DHT22;20043;50.998;4.754;2024-03-02T14:07:09;13.40;99.90
33715;DHT22;20043;50.998;4.754;2024-03-02T14:09:37;13.40;99.90
33715;DHT22;20043;50.998;4.754;2024-03-02T14:12:03;13.50;99.90
33715;DHT22;20043;50.998;4.754;2024-03-02T14:14:29;13.70;99.90
33715;DHT22;20043;50.998;4.754;2024-03-02T14:16:55;13.70;99.90
33715;DHT22;20043;50.998;4.754;2024-03-02T14:19:31;13.80;99.90
33715;DHT22;20043;50.998;4.754;2024-03-02T14:21:57;13.80;99.90
33715;DHT22;20043;50.998;4.754;2024-03-02T14:24:23;13.80;99.90
33715;DHT22;20043;50.998;4.754;2024-03-02T14:26:52;13.80;99.90
33715;DHT22;20043;50.998;4.754;2024-03-02T14:29:18;13.90;99.90
33715;DHT22;20043;50.998;4.754;2024-03-02T14:31:44;13.90;99.90
33715;DHT22;20043;50.998;4.754;2024-03-02T14:34:13;14.00;99.90
33715;DHT22;20043;50.998;4.754;2024-03-02T14:36:39;13.90;99.90
33715;DHT22;20043;50.998;4.754;2024-03-02T14:39:05;13.80;99.90
33715;DHT22;20043;50.998;4.754;2024-03-02T14:41:34;13.80;99.90
33715;DHT22;20043;50.998;4.754;2024-03-02T14:44:00;13.70;99.90
33715;DHT22;20043;50.998;4.754;2024-03-02T14:46:25;13.70;99.90
33715;DHT22;20043;50.998;4.754;2024-03-02T14:48:51;13.70;99.90
33715;DHT22;20043;50.998;4.754;2024-03-02T14:51:16;13.70;99.90
33715;DHT22;20043;50.998;4.754;2024-03-02T14:53:42;13.60;99.90
33715;DHT22;20043;50.998;4.754;2024-03-02T14:56:08;13.60;99.90
33715;DHT22;20043;50.998;4.754;2024-03-02T14:58:33;13.70;99.90
33715;DHT22;20043;50.998;4.754;2024-03-02T15:01:00;13.70;99.90
33715;DHT22;20043;50.998;4.754;2024-03-02T15:03:26;13.80;99.90
33715;DHT22;20043;50.998;4.754;2024-03-02T15:05:52;13.90;99.90
33715;DHT22;20043;50.998;4.754;2024-03-02T15:08:19;13.90;99.90
33715;DHT22;20043;50.998;4.754;2024-03-02T15:10:44;13.90;99.90
33715;DHT22;20043;50.998;4.754;2024-03-02T15:13:10;13.90;99.90
33715;DHT22;20043;50.998;4.754;2024-03-02T15:15:35;14.00;99.90
33715;DHT22;20043;50.998;4.754;2024-03-02T15:18:01;14.00;99.90
33715;DHT22;20043;50.998;4.754;2024-03-02T15:20:27;14.00;99.90
33715;DHT22;20043;50.998;4.754;2024-03-02T15:22:52;14.00;99.90
33715;DHT22;20043;50.998;4.754;2024-03-02T15:25:18;14.10;99.90
33715;DHT22;20043;50.998;4.754;2024-03-02T15:27:43;13.90;99.90
33715;DHT22;20043;50.998;4.754;2024-03-02T15:30:09;14.00;99.90
33715;DHT22;20043;50.998;4.754;2024-03-02T15:32:35;13.70;99.90
33715;DHT22;20043;50.998;4.754;2024-03-02T15:35:02;13.80;99.90
33715;DHT22;20043;50.998;4.754;2024-03-02T15:37:28;13.80;99.90
33715;DHT22;20043;50.998;4.754;2024-03-02T15:39:53;13.90;99.90
33715;DHT22;20043;50.998;4.754;2024-03-02T15:42:19;14.00;99.90
33715;DHT22;20043;50.998;4.754;2024-03-02T15:44:48;14.10;99.90
33715;DHT22;20043;50.998;4.754;2024-03-02T15:47:14;14.10;99.90
33715;DHT22;20043;50.998;4.754;2024-03-02T15:49:40;14.10;99.90
33715;DHT22;20043;50.998;4.754;2024-03-02T15:52:06;14.20;99.90
33715;DHT22;20043;50.998;4.754;2024-03-02T15:54:31;14.30;99.90
33715;DHT22;20043;50.998;4.754;2024-03-02T15:56:57;14.30;99.90
33715;DHT22;20043;50.998;4.754;2024-03-02T15:59:22;14.20;99.90
33715;DHT22;20043;50.998;4.754;2024-03-02T16:01:48;14.20;99.90